Time;durP1;ratioP1;P1;durP2;ratioP2;P2;SDS_P1;SDS_P2;PMS_P1;PMS_P2;Temp;Humidity;BMP_temperature;BMP_pressure;BME280_temperature;BME280_humidity;BME280_pressure;Samples;Min_cycle;Max_cycle;Signal;HPM_P1;HPM_P2
2024/04/11 00:00:15;;;;;;;1.02;0.70;;;7.50;99.90;;;;;;5373804;26;20001;-66
2024/04/11 00:02:43;;;;;;;5.32;1.02;;;7.10;99.90;;;;;;5378103;26;19996;-66
2024/04/11 00:05:09;;;;;;;1.33;0.93;;;7.10;99.90;;;;;;5373041;26;20090;-66
2024/04/11 00:07:35;;;;;;;2.67;1.77;;;7.10;99.90;;;;;;5377671;26;20029;-66
2024/04/11 00:10:00;;;;;;;2.55;0.88;;;7.20;99.90;;;;;;5373621;26;20011;-66
2024/04/11 00:12:26;;;;;;;2.25;1.17;;;7.30;99.90;;;;;;5378075;26;20028;-66
2024/04/11 00:14:52;;;;;;;3.97;1.30;;;7.30;99.90;;;;;;5374220;26;19993;-66
2024/04/11 00:17:18;;;;;;;1.38;0.75;;;7.30;99.90;;;;;;5376679;26;20007;-66
2024/04/11 00:19:44;;;;;;;2.70;1.30;;;7.20;99.90;;;;;;5376473;26;19996;-66
2024/04/11 00:22:10;;;;;;;3.35;1.60;;;7.10;99.90;;;;;;5375169;26;20428;-66
2024/04/11 00:24:36;;;;;;;9.00;1.27;;;7.10;99.90;;;;;;5377144;26;20486;-66
2024/04/11 00:27:02;;;;;;;11.13;1.45;;;7.10;99.90;;;;;;5379264;26;20015;-66
2024/04/11 00:29:28;;;;;;;4.40;1.67;;;7.10;99.90;;;;;;5381670;26;20011;-67
2024/04/11 00:31:55;;;;;;;2.70;1.15;;;7.20;99.90;;;;;;5376629;26;19996;-67
2024/04/11 00:34:24;;;;;;;2.58;1.10;;;7.30;99.90;;;;;;5381337;26;20015;-67
2024/04/11 00:36:53;;;;;;;1.67;0.95;;;7.20;99.90;;;;;;5377972;26;20055;-67
2024/04/11 00:39:20;;;;;;;1.33;0.90;;;7.10;99.90;;;;;;5379951;26;20359;-67
2024/04/11 00:41:50;;;;;;;4.32;1.55;;;7.10;99.90;;;;;;5360858;26;20011;-67
2024/04/11 00:44:18;;;;;;;2.03;1.03;;;7.00;99.90;;;;;;5378662;26;20004;-67
2024/04/11 00:46:52;;;;;;;3.47;1.08;;;7.00;99.90;;;;;;5378370;26;20738;-67
2024/04/11 00:49:20;;;;;;;5.22;1.88;;;6.90;99.90;;;;;;5379579;26;19992;-67
2024/04/11 00:51:47;;;;;;;1.63;0.75;;;6.70;99.90;;;;;;5371438;26;20004;-67
2024/04/11 00:54:15;;;;;;;3.20;1.35;;;6.60;99.90;;;;;;5379208;26;20456;-67
2024/04/11 00:56:43;;;;;;;1.45;1.02;;;6.60;99.90;;;;;;5378120;26;20051;-67
2024/04/11 00:59:11;;;;;;;7.55;0.80;;;6.70;99.90;;;;;;5380623;26;20066;-67
2024/04/11 01:01:36;;;;;;;4.15;1.30;;;6.70;99.90;;;;;;5371137;26;20015;-67
2024/04/11 01:04:06;;;;;;;1.95;1.42;;;6.70;99.90;;;;;;5378827;26;20000;-67
2024/04/11 01:09:46;;;;;;;3.78;1.60;;;6.70;99.90;;;;;;5361041;26;19997;-67
2024/04/11 01:12:12;;;;;;;3.08;1.40;;;6.70;99.90;;;;;;5355677;26;20025;-67
2024/04/11 01:14:42;;;;;;;4.28;1.13;;;6.60;99.90;;;;;;5347339;26;20012;-67
2024/04/11 01:17:10;;;;;;;3.88;1.70;;;6.60;99.90;;;;;;5358769;26;20015;-66
2024/04/11 01:19:36;;;;;;;1.85;0.88;;;6.60;99.90;;;;;;5356678;26;20033;-67
2024/04/11 01:22:02;;;;;;;3.88;1.60;;;6.60;99.90;;;;;;5346136;26;20079;-66
2024/04/11 01:24:28;;;;;;;4.20;1.50;;;6.60;99.90;;;;;;5344158;26;20093;-67
2024/04/11 01:26:56;;;;;;;8.90;2.30;;;6.50;99.90;;;;;;5345742;26;19997;-67
2024/04/11 01:29:22;;;;;;;3.30;1.90;;;6.60;99.90;;;;;;5344728;26;20012;-67
2024/04/11 01:31:57;;;;;;;4.05;1.67;;;6.60;99.90;;;;;;5346241;26;20005;-66
2024/04/11 01:34:23;;;;;;;4.13;1.70;;;6.50;99.90;;;;;;5358299;26;20015;-66
2024/04/11 01:36:49;;;;;;;13.68;2.42;;;6.60;99.90;;;;;;5356968;26;20024;-66
2024/04/11 01:39:15;;;;;;;6.18;2.15;;;6.60;99.90;;;;;;5373449;26;19997;-67
2024/04/11 01:41:41;;;;;;;3.83;1.88;;;6.70;99.90;;;;;;5359191;26;20005;-67
2024/04/11 01:44:07;;;;;;;1.75;1.20;;;6.80;99.90;;;;;;5345359;26;20005;-67
2024/04/11 01:46:32;;;;;;;5.85;1.38;;;6.70;99.90;;;;;;5344690;26;20004;-67
2024/04/11 01:49:00;;;;;;;3.22;1.75;;;6.70;99.90;;;;;;5315768;26;20000;-67
2024/04/11 01:51:26;;;;;;;11.60;1.33;;;6.70;99.90;;;;;;5343872;26;20001;-67
2024/04/11 01:53:54;;;;;;;1.73;1.20;;;6.80;99.90;;;;;;5359728;26;20457;-67
2024/04/11 01:56:19;;;;;;;7.50;1.50;;;6.90;99.90;;;;;;5358659;26;20045;-67
2024/04/11 01:58:45;;;;;;;4.45;1.35;;;6.90;99.90;;;;;;5357161;26;20491;-67
2024/04/11 02:01:12;;;;;;;3.88;1.98;;;6.90;99.90;;;;;;5347952;26;20051;-67
2024/04/11 02:03:39;;;;;;;5.30;1.33;;;6.90;99.90;;;;;;5346243;26;20001;-67
2024/04/11 02:06:08;;;;;;;4.47;1.60;;;6.90;99.90;;;;;;5372945;26;20477;-67
2024/04/11 02:08:38;;;;;;;3.15;1.40;;;7.00;99.90;;;;;;5345883;26;20008;-67
2024/04/11 02:11:06;;;;;;;4.13;1.40;;;6.90;99.90;;;;;;5359202;26;20005;-67
2024/04/11 02:13:32;;;;;;;1.95;1.10;;;6.90;99.90;;;;;;5353747;26;20008;-68
2024/04/11 02:16:01;;;;;;;5.28;1.63;;;6.90;99.90;;;;;;5374504;26;20008;-68
2024/04/11 02:18:27;;;;;;;4.55;1.42;;;6.90;99.90;;;;;;5335664;26;20015;-68
2024/04/11 02:20:56;;;;;;;6.43;2.28;;;6.90;99.90;;;;;;5352129;26;20001;-67
2024/04/11 02:23:22;;;;;;;3.05;1.85;;;6.90;99.90;;;;;;5345312;26;20000;-67
2024/04/11 02:25:50;;;;;;;2.72;1.65;;;6.90;99.90;;;;;;5344584;26;20020;-68
2024/04/11 02:28:16;;;;;;;4.05;1.70;;;6.90;99.90;;;;;;5371070;26;20007;-68
2024/04/11 02:30:43;;;;;;;3.28;1.67;;;6.80;99.90;;;;;;5390801;21;20008;-69
2024/04/11 02:33:10;;;;;;;5.63;2.08;;;6.80;99.90;;;;;;5409854;26;19999;-69
2024/04/11 02:35:38;;;;;;;6.38;1.60;;;6.70;99.90;;;;;;5358424;26;20000;-69
2024/04/11 02:38:04;;;;;;;7.40;2.63;;;6.60;99.90;;;;;;5364607;26;20451;-69
2024/04/11 02:40:29;;;;;;;4.85;2.45;;;6.60;99.90;;;;;;5371236;26;19997;-70
2024/04/11 02:42:55;;;;;;;3.65;1.98;;;6.50;99.90;;;;;;5375146;26;20024;-70
2024/04/11 02:45:21;;;;;;;8.02;1.58;;;6.50;99.90;;;;;;5367132;26;20007;-70
2024/04/11 02:47:47;;;;;;;4.78;1.60;;;6.50;99.90;;;;;;5354171;26;20046;-70
2024/04/11 02:50:21;;;;;;;6.18;3.38;;;6.50;99.90;;;;;;5371985;26;20004;-70
2024/04/11 02:52:46;;;;;;;5.95;2.65;;;6.50;99.90;;;;;;5344582;26;19997;-69
2024/04/11 02:55:14;;;;;;;5.40;2.80;;;6.50;99.90;;;;;;5344798;26;20016;-69
2024/04/11 02:57:42;;;;;;;5.20;2.47;;;6.50;99.90;;;;;;5343785;26;20082;-69
2024/04/11 03:00:16;;;;;;;5.70;2.67;;;6.50;99.90;;;;;;5345139;26;20015;-69
2024/04/11 03:02:42;;;;;;;7.07;2.60;;;6.50;99.90;;;;;;5358745;26;20513;-70
2024/04/11 03:05:08;;;;;;;6.65;2.55;;;6.50;99.90;;;;;;5351234;26;20011;-69
2024/04/11 03:07:34;;;;;;;7.40;2.92;;;6.50;99.90;;;;;;5364676;26;20019;-69
2024/04/11 03:10:01;;;;;;;4.40;2.72;;;6.40;99.90;;;;;;5351126;26;21285;-69
2024/04/11 03:12:26;;;;;;;9.43;3.70;;;6.30;99.90;;;;;;5344254;26;20012;-69
2024/04/11 03:14:52;;;;;;;7.43;2.08;;;6.20;99.90;;;;;;5351722;26;20001;-69
2024/04/11 03:17:18;;;;;;;4.00;1.92;;;6.00;99.90;;;;;;5399712;26;20446;-69
2024/04/11 03:19:45;;;;;;;2.95;1.50;;;5.60;99.90;;;;;;5353332;26;20004;-69
2024/04/11 03:22:10;;;;;;;3.25;1.60;;;5.50;99.90;;;;;;5361505;26;20024;-69
2024/04/11 03:24:39;;;;;;;5.40;1.45;;;5.60;99.90;;;;;;5343942;26;20016;-69
2024/04/11 03:27:05;;;;;;;4.03;1.55;;;5.50;99.90;;;;;;5347092;26;20004;-69
2024/04/11 03:29:30;;;;;;;3.60;2.00;;;5.60;99.90;;;;;;5343293;26;20104;-69
2024/04/11 03:31:56;;;;;;;7.70;2.08;;;5.60;99.90;;;;;;5359542;26;20020;-69
2024/04/11 03:34:25;;;;;;;5.00;2.13;;;5.70;99.90;;;;;;5357894;26;20098;-69
2024/04/11 03:36:50;;;;;;;4.10;2.30;;;5.60;99.90;;;;;;5359161;26;20004;-69
2024/04/11 03:39:16;;;;;;;4.88;2.40;;;5.60;99.90;;;;;;5349980;26;20001;-69
2024/04/11 03:41:49;;;;;;;4.57;2.08;;;5.60;99.90;;;;;;5349336;26;20485;-69
2024/04/11 03:44:15;;;;;;;3.08;1.52;;;5.60;99.90;;;;;;5372768;26;20000;-69
2024/04/11 03:46:41;;;;;;;2.42;1.45;;;5.50;99.90;;;;;;5358490;26;20085;-69
2024/04/11 03:49:08;;;;;;;4.38;2.28;;;5.50;99.90;;;;;;5371230;26;20037;-69
2024/04/11 03:51:38;;;;;;;3.90;1.98;;;5.50;99.90;;;;;;5355742;26;20325;-69
2024/04/11 03:54:06;;;;;;;6.72;1.92;;;5.40;99.90;;;;;;5363718;26;20320;-68
2024/04/11 03:56:32;;;;;;;12.27;2.70;;;5.40;99.90;;;;;;5359172;26;20034;-69
2024/04/11 03:58:58;;;;;;;4.88;2.83;;;5.40;99.90;;;;;;5364169;26;20008;-69
2024/04/11 04:01:30;;;;;;;4.88;1.83;;;5.30;99.90;;;;;;5365396;26;19996;-69
2024/04/11 04:04:02;;;;;;;3.35;2.20;;;5.30;99.90;;;;;;5364905;26;20008;-69
2024/04/11 04:06:33;;;;;;;4.75;1.98;;;5.30;99.90;;;;;;5349842;26;20001;-69
2024/04/11 04:08:59;;;;;;;1.95;1.45;;;5.00;99.90;;;;;;5360916;26;20074;-68
2024/04/11 04:11:25;;;;;;;12.93;3.05;;;5.00;99.90;;;;;;5362924;26;20004;-69
2024/04/11 04:13:52;;;;;;;3.53;1.65;;;5.00;99.90;;;;;;5362480;26;20029;-69
2024/04/11 04:16:21;;;;;;;4.45;1.58;;;5.10;99.90;;;;;;5365377;26;20073;-69
2024/04/11 04:18:54;;;;;;;3.00;1.75;;;5.20;99.90;;;;;;5376148;26;20028;-73
2024/04/11 04:21:20;;;;;;;11.32;1.45;;;5.20;99.90;;;;;;5372201;26;20019;-69
2024/04/11 04:23:54;;;;;;;19.58;2.08;;;5.20;99.90;;;;;;5346598;26;20009;-69
2024/04/11 04:26:22;;;;;;;9.38;1.88;;;5.10;99.90;;;;;;5359565;26;20090;-69
2024/04/11 04:28:48;;;;;;;4.13;1.77;;;5.10;99.90;;;;;;5371059;26;20012;-69
2024/04/11 04:31:28;;;;;;;3.58;1.67;;;5.10;99.90;;;;;;5382338;26;19997;-69
2024/04/11 04:33:57;;;;;;;6.57;1.80;;;5.10;99.90;;;;;;5361314;26;20079;-70
2024/04/11 04:36:28;;;;;;;5.47;2.38;;;5.20;99.90;;;;;;5349151;26;20334;-69
2024/04/11 04:38:57;;;;;;;5.15;1.75;;;5.40;99.90;;;;;;5358917;26;20008;-69
2024/04/11 04:41:28;;;;;;;3.72;2.58;;;5.40;99.90;;;;;;5363885;26;20739;-70
2024/04/11 04:43:56;;;;;;;2.78;1.50;;;5.30;99.90;;;;;;5379372;26;20008;-69
2024/04/11 04:46:26;;;;;;;5.32;2.17;;;5.30;99.90;;;;;;5349539;26;20001;-69
2024/04/11 04:48:52;;;;;;;3.67;2.30;;;5.30;99.90;;;;;;5374977;26;20000;-69
2024/04/11 04:51:23;;;;;;;3.92;1.92;;;5.20;99.90;;;;;;5348843;26;20220;-69
2024/04/11 04:53:50;;;;;;;;;;;5.10;99.90;;;;;;5346890;26;20049;-70
2024/04/11 04:56:18;;;;;;;2.53;1.63;;;5.00;99.90;;;;;;5362603;26;19932;-69
2024/04/11 04:58:44;;;;;;;7.10;2.97;;;5.10;99.90;;;;;;5345767;26;20011;-69
2024/04/11 05:01:10;;;;;;;8.27;2.70;;;5.20;99.90;;;;;;5362088;26;20080;-70
2024/04/11 05:03:40;;;;;;;11.00;2.28;;;5.20;99.90;;;;;;5366023;26;20077;-69
2024/04/11 05:06:12;;;;;;;2.10;0.95;;;5.30;99.90;;;;;;5363465;26;20353;-69
2024/04/11 05:08:39;;;;;;;5.85;1.98;;;5.10;99.90;;;;;;5370171;26;19997;-69
2024/04/11 05:11:10;;;;;;;22.95;9.52;;;5.10;99.90;;;;;;5342571;26;20004;-69
2024/04/11 05:13:44;;;;;;;15.07;3.92;;;5.10;99.90;;;;;;5368905;26;20004;-69
2024/04/11 05:16:12;;;;;;;233.82;100.72;;;4.90;99.90;;;;;;5370444;26;20004;-68
2024/04/11 05:18:39;;;;;;;150.52;61.58;;;4.90;99.90;;;;;;5353406;26;19996;-69
2024/04/11 05:21:12;;;;;;;9.25;5.43;;;4.80;99.90;;;;;;5359444;26;20027;-69
2024/04/11 05:23:42;;;;;;;4.35;1.90;;;4.80;99.90;;;;;;5369686;26;20003;-69
2024/04/11 05:26:14;;;;;;;5.57;2.40;;;4.90;99.90;;;;;;5369216;26;20022;-69
2024/04/11 05:28:44;;;;;;;2.55;1.58;;;4.90;99.90;;;;;;5356758;26;20008;-69
2024/04/11 05:31:16;;;;;;;4.05;2.28;;;4.90;99.90;;;;;;5348380;26;20008;-69
2024/04/11 05:33:44;;;;;;;3.78;2.60;;;4.90;99.90;;;;;;5336277;26;20004;-69
2024/04/11 05:36:17;;;;;;;8.50;1.83;;;5.00;99.90;;;;;;5361986;26;20372;-69
2024/04/11 05:38:44;;;;;;;3.78;1.52;;;5.10;99.90;;;;;;5355374;26;20478;-68
2024/04/11 05:41:11;;;;;;;2.92;1.83;;;5.20;99.90;;;;;;5360699;26;20028;-69
2024/04/11 05:43:42;;;;;;;4.35;2.03;;;5.20;99.90;;;;;;5366693;26;20078;-69
2024/04/11 05:46:13;;;;;;;;;;;5.20;99.90;;;;;;5375559;26;20011;-69
2024/04/11 05:48:41;;;;;;;2.60;1.50;;;5.30;99.90;;;;;;5334040;26;19927;-69
2024/04/11 05:51:06;;;;;;;4.93;2.28;;;5.40;99.90;;;;;;5374884;26;20007;-69
2024/04/11 05:53:36;;;;;;;3.17;1.77;;;5.50;99.90;;;;;;5380303;26;20011;-69
2024/04/11 05:56:12;;;;;;;10.30;2.42;;;5.50;99.90;;;;;;5359302;26;20001;-68
2024/04/11 05:58:43;;;;;;;2.95;1.40;;;5.60;99.90;;;;;;5359797;26;20025;-69
2024/04/11 06:01:13;;;;;;;15.13;3.17;;;5.70;99.90;;;;;;5374111;26;20348;-69
2024/04/11 06:03:41;;;;;;;15.75;2.15;;;5.80;99.90;;;;;;5378884;26;20016;-69
2024/04/11 06:06:13;;;;;;;5.28;1.65;;;5.90;99.90;;;;;;5377039;26;20014;-69
2024/04/11 06:08:46;;;;;;;7.65;3.38;;;5.90;99.90;;;;;;5344514;26;19993;-69
2024/04/11 06:11:12;;;;;;;4.60;2.50;;;6.00;99.90;;;;;;5377708;26;20448;-68
2024/04/11 06:13:39;;;;;;;8.30;2.10;;;6.20;99.90;;;;;;5380066;26;20356;-69
2024/04/11 06:16:05;;;;;;;7.55;2.70;;;6.20;99.90;;;;;;5364812;26;20000;-69
2024/04/11 06:18:34;;;;;;;18.48;2.95;;;6.30;99.90;;;;;;5364927;26;20004;-70
2024/04/11 06:21:02;;;;;;;2.55;1.83;;;6.30;99.90;;;;;;5377776;26;20040;-69
2024/04/11 06:23:29;;;;;;;6.28;2.63;;;6.40;99.90;;;;;;5378614;26;19996;-69
2024/04/11 06:25:55;;;;;;;7.70;1.88;;;6.50;99.90;;;;;;5399259;26;20008;-69
2024/04/11 06:28:21;;;;;;;9.40;2.22;;;6.70;99.90;;;;;;5379969;26;20414;-69
2024/04/11 06:30:54;;;;;;;7.90;2.72;;;6.80;99.90;;;;;;5378690;26;20000;-69
2024/04/11 06:33:22;;;;;;;3.05;1.60;;;6.90;99.90;;;;;;5378301;26;19996;-69
2024/04/11 06:35:51;;;;;;;4.60;1.95;;;7.00;99.90;;;;;;5377331;26;20024;-69
2024/04/11 06:38:20;;;;;;;7.53;2.47;;;7.00;99.90;;;;;;5350018;26;20512;-69
2024/04/11 06:40:52;;;;;;;3.85;2.33;;;7.10;99.90;;;;;;5349050;26;20008;-69
2024/04/11 06:43:21;;;;;;;5.35;1.83;;;7.20;99.90;;;;;;5378003;26;20077;-70
2024/04/11 06:45:48;;;;;;;6.72;2.03;;;7.20;99.90;;;;;;5365381;26;20000;-69
2024/04/11 06:48:15;;;;;;;4.65;2.03;;;7.40;99.90;;;;;;5377224;26;20008;-69
2024/04/11 06:50:40;;;;;;;5.97;2.40;;;7.50;99.90;;;;;;5377922;26;20379;-69
2024/04/11 06:53:08;;;;;;;4.55;1.90;;;7.60;99.90;;;;;;5365823;26;20015;-69
2024/04/11 06:55:34;;;;;;;3.85;1.98;;;7.70;99.90;;;;;;5379490;26;20011;-69
2024/04/11 06:58:01;;;;;;;7.13;1.45;;;7.80;99.90;;;;;;5376464;26;20127;-69
2024/04/11 07:00:36;;;;;;;4.80;1.85;;;7.90;99.90;;;;;;5377332;26;20007;-70
2024/04/11 07:03:25;;;;;;;7.72;2.90;;;8.00;99.90;;;;;;5350059;26;20398;-71
2024/04/11 07:05:57;;;;;;;13.30;1.75;;;8.10;99.90;;;;;;5364791;26;20008;-69
2024/04/11 07:08:33;;;;;;;9.27;2.22;;;8.20;99.90;;;;;;5365300;26;20000;-69
2024/04/11 07:11:19;;;;;;;4.90;2.47;;;8.30;99.90;;;;;;5336334;26;19996;-70
2024/04/11 07:13:48;;;;;;;4.55;1.80;;;8.50;99.90;;;;;;5379186;26;20010;-69
2024/04/11 07:16:25;;;;;;;18.00;2.38;;;8.60;99.90;;;;;;5373785;26;20321;-69
2024/04/11 07:18:55;;;;;;;14.95;2.55;;;8.80;99.90;;;;;;5370294;26;20014;-69
2024/04/11 07:21:26;;;;;;;8.18;2.15;;;8.80;99.90;;;;;;5376597;26;20016;-70
2024/04/11 07:24:00;;;;;;;12.00;3.55;;;9.00;99.90;;;;;;5377114;26;20068;-69
2024/04/11 07:26:30;;;;;;;4.60;1.90;;;9.20;99.90;;;;;;5371307;26;20078;-69
2024/04/11 07:29:03;;;;;;;4.15;1.98;;;9.30;99.90;;;;;;5342990;26;20012;-69
2024/04/11 07:31:35;;;;;;;52.45;5.75;;;9.40;99.90;;;;;;5370831;26;19993;-70
2024/04/11 07:34:03;;;;;;;7.47;2.95;;;9.60;99.90;;;;;;5376740;26;20069;-70
2024/04/11 07:36:30;;;;;;;8.02;2.92;;;9.80;99.90;;;;;;5374442;26;20024;-70
2024/04/11 07:38:57;;;;;;;11.48;3.30;;;10.00;99.90;;;;;;5376240;26;20077;-69
2024/04/11 07:41:44;;;;;;;7.28;2.65;;;10.20;99.90;;;;;;5377188;26;20000;-69
2024/04/11 07:44:11;;;;;;;4.07;2.30;;;10.30;99.90;;;;;;5367969;26;20015;-69
2024/04/11 07:46:37;;;;;;;5.28;2.25;;;10.50;99.90;;;;;;5341431;26;20476;-69
2024/04/11 07:49:07;;;;;;;5.68;2.05;;;10.60;99.90;;;;;;5393694;26;20396;-70
2024/04/11 07:51:34;;;;;;;4.68;1.67;;;10.60;99.90;;;;;;5369693;26;20369;-68
2024/04/11 07:54:03;;;;;;;4.13;1.60;;;10.60;99.90;;;;;;5371617;26;20012;-70
2024/04/11 07:56:29;;;;;;;8.73;2.75;;;10.60;99.90;;;;;;5341733;26;20013;-69
2024/04/11 07:58:56;;;;;;;5.50;2.20;;;10.70;99.90;;;;;;5368533;26;19993;-69
2024/04/11 08:01:31;;;;;;;4.68;1.90;;;10.90;99.90;;;;;;5346685;26;20000;-69
2024/04/11 08:03:58;;;;;;;6.30;1.60;;;11.00;99.90;;;;;;5377208;26;19996;-69
2024/04/11 08:06:24;;;;;;;4.57;1.45;;;11.10;99.90;;;;;;5371588;26;20074;-69
2024/04/11 08:08:51;;;;;;;5.78;2.10;;;11.20;99.90;;;;;;5368492;26;20453;-69
2024/04/11 08:11:17;;;;;;;4.07;2.00;;;11.30;99.90;;;;;;5373430;26;20079;-68
2024/04/11 08:13:45;;;;;;;2.47;1.42;;;11.30;99.90;;;;;;5369539;26;20012;-69
2024/04/11 08:16:11;;;;;;;3.78;1.35;;;11.40;99.90;;;;;;5373373;26;20011;-69
2024/04/11 08:18:37;;;;;;;4.78;1.63;;;11.50;99.90;;;;;;5400276;26;20433;-69
2024/04/11 08:21:08;;;;;;;5.40;1.27;;;11.80;99.90;;;;;;5377734;26;20008;-69
2024/04/11 08:23:36;;;;;;;7.47;1.52;;;11.90;99.90;;;;;;5377146;26;20484;-69
2024/04/11 08:26:02;;;;;;;2.17;1.60;;;11.80;99.90;;;;;;5376766;26;20012;-69
2024/04/11 08:28:27;;;;;;;3.33;1.52;;;12.00;99.90;;;;;;5369757;26;20425;-69
2024/04/11 08:30:53;;;;;;;1.88;1.20;;;12.10;99.90;;;;;;5367689;26;20004;-69
2024/04/11 08:33:23;;;;;;;2.63;1.52;;;12.30;99.90;;;;;;5375315;26;20011;-69
2024/04/11 08:35:52;;;;;;;2.03;1.30;;;12.20;99.90;;;;;;5377722;26;20019;-69
2024/04/11 08:38:22;;;;;;;3.05;1.60;;;12.30;99.90;;;;;;5363760;26;20437;-69
2024/04/11 08:40:49;;;;;;;3.78;1.70;;;12.40;99.90;;;;;;5375973;26;20012;-70
2024/04/11 08:43:20;;;;;;;4.13;1.00;;;12.40;99.90;;;;;;5374817;26;20471;-70
2024/04/11 08:45:46;;;;;;;4.10;1.13;;;12.50;99.90;;;;;;5369076;26;20047;-70
2024/04/11 08:48:12;;;;;;;5.78;1.73;;;12.70;99.90;;;;;;5374910;26;20000;-69
2024/04/11 08:50:46;;;;;;;5.10;1.52;;;12.80;99.40;;;;;;5380429;26;20004;-69
2024/04/11 08:53:17;;;;;;;2.28;1.00;;;12.90;99.40;;;;;;5376127;26;19996;-70
2024/04/11 08:55:43;;;;;;;15.25;4.82;;;13.00;98.10;;;;;;5379217;26;20000;-70
2024/04/11 08:58:09;;;;;;;5.95;1.58;;;13.00;99.10;;;;;;5376989;26;20073;-69
2024/04/11 09:00:42;;;;;;;5.55;1.15;;;13.00;96.80;;;;;;5370744;26;20528;-69
2024/04/11 09:03:13;;;;;;;3.10;0.95;;;13.20;94.70;;;;;;5372901;26;19997;-70
2024/04/11 09:05:39;;;;;;;2.72;1.05;;;13.20;94.50;;;;;;5373354;26;20425;-70
2024/04/11 09:08:05;;;;;;;8.38;0.85;;;13.30;94.80;;;;;;5373280;26;20008;-70
2024/04/11 09:10:31;;;;;;;2.58;0.80;;;13.40;93.80;;;;;;5379213;26;20456;-69
2024/04/11 09:13:00;;;;;;;6.13;1.60;;;13.60;93.80;;;;;;5378816;26;20030;-70
2024/04/11 09:15:26;;;;;;;5.93;1.92;;;13.50;94.30;;;;;;5373198;26;19997;-70
2024/04/11 09:17:55;;;;;;;1.83;1.20;;;13.60;93.90;;;;;;5370522;26;20014;-70
2024/04/11 09:20:24;;;;;;;12.95;3.08;;;13.70;94.00;;;;;;5380540;26;20016;-70
2024/04/11 09:22:59;;;;;;;3.45;1.05;;;13.90;94.40;;;;;;5379884;26;20000;-70
2024/04/11 09:25:31;;;;;;;7.82;1.58;;;14.10;94.10;;;;;;5376158;26;20000;-70
2024/04/11 09:28:00;;;;;;;4.03;1.00;;;14.10;92.50;;;;;;5376736;26;20452;-70
2024/04/11 09:30:30;;;;;;;2.78;0.82;;;14.30;91.80;;;;;;5380205;26;20004;-70
2024/04/11 09:33:04;;;;;;;4.53;1.20;;;14.50;92.00;;;;;;5377486;26;20000;-70
2024/04/11 09:35:46;;;;;;;4.50;1.08;;;14.60;91.90;;;;;;5364515;26;20004;-70
2024/04/11 09:38:13;;;;;;;5.65;1.08;;;14.80;92.00;;;;;;5375878;26;20394;-70
2024/04/11 09:40:50;;;;;;;4.82;1.02;;;15.00;92.20;;;;;;5379535;26;20001;-70
2024/04/11 09:43:17;;;;;;;3.90;0.98;;;15.20;90.60;;;;;;5378357;26;20005;-69
2024/04/11 09:45:50;;;;;;;2.92;1.02;;;15.40;89.60;;;;;;5378139;26;20001;-69
2024/04/11 09:48:21;;;;;;;1.42;0.90;;;15.30;90.10;;;;;;5376942;26;20081;-70
2024/04/11 09:50:50;;;;;;;4.22;1.30;;;15.40;88.90;;;;;;5378453;26;20008;-70
2024/04/11 09:53:26;;;;;;;13.20;6.20;;;15.70;87.50;;;;;;5376857;26;20066;-70
2024/04/11 09:55:59;;;;;;;11.25;3.33;;;16.10;86.80;;;;;;5379296;26;20015;-70
2024/04/11 09:58:29;;;;;;;0.73;0.43;;;16.10;87.50;;;;;;5364812;26;20656;-70
2024/04/11 10:01:05;;;;;;;4.10;1.35;;;16.40;78.70;;;;;;5378471;26;20440;-70
2024/04/11 10:03:44;;;;;;;2.08;0.82;;;16.20;81.20;;;;;;5376688;26;20001;-70
2024/04/11 10:06:16;;;;;;;3.13;1.27;;;16.30;81.90;;;;;;5377370;26;20004;-70
2024/04/11 10:08:48;;;;;;;15.50;1.75;;;16.70;82.10;;;;;;5378096;26;20000;-70
2024/04/11 10:11:17;;;;;;;1.40;0.82;;;16.60;78.80;;;;;;5362997;26;20058;-69
2024/04/11 10:13:49;;;;;;;5.00;1.02;;;16.50;81.60;;;;;;5377938;26;20466;-69
2024/04/11 10:16:22;;;;;;;3.85;1.10;;;16.50;80.10;;;;;;5362807;26;20004;-69
2024/04/11 10:19:04;;;;;;;3.80;1.25;;;16.70;82.50;;;;;;5366533;26;20005;-70
2024/04/11 10:21:38;;;;;;;3.28;1.00;;;16.90;76.90;;;;;;5365666;26;20008;-70
2024/04/11 10:24:15;;;;;;;3.15;0.93;;;16.90;78.50;;;;;;5365359;26;20000;-70
2024/04/11 10:26:47;;;;;;;2.05;0.75;;;17.30;76.80;;;;;;5378998;26;20004;-70
2024/04/11 10:29:19;;;;;;;8.52;1.20;;;17.60;78.40;;;;;;5377041;26;20019;-70
2024/04/11 10:31:47;;;;;;;42.72;2.05;;;17.70;78.50;;;;;;5379836;26;20000;-69
2024/04/11 10:34:19;;;;;;;2.42;0.73;;;17.80;77.20;;;;;;5376855;26;20085;-69
2024/04/11 10:36:53;;;;;;;5.25;1.52;;;18.10;72.10;;;;;;5377265;26;20030;-70
2024/04/11 10:39:20;;;;;;;2.22;0.98;;;17.60;71.20;;;;;;5365985;26;20012;-70
2024/04/11 10:41:51;;;;;;;1.52;0.98;;;18.20;70.30;;;;;;5379401;26;20016;-70
2024/04/11 10:44:20;;;;;;;;;;;17.70;69.80;;;;;;5377244;26;20468;-70
2024/04/11 10:46:46;;;;;;;2.05;0.52;;;17.70;66.30;;;;;;5376689;26;19933;-70
2024/04/11 10:49:15;;;;;;;4.97;0.40;;;17.60;66.00;;;;;;5376468;26;20004;-70
2024/04/11 10:51:42;;;;;;;3.72;1.25;;;18.40;64.60;;;;;;5407002;26;20004;-70
2024/04/11 10:54:09;;;;;;;2.60;0.57;;;18.80;66.50;;;;;;5376614;26;19996;-70
2024/04/11 10:56:43;;;;;;;4.05;0.98;;;19.40;64.70;;;;;;5376725;26;20000;-70
2024/04/11 10:59:22;;;;;;;1.40;0.38;;;19.10;61.90;;;;;;5376636;26;20081;-70
2024/04/11 11:02:08;;;;;;;2.25;0.43;;;19.20;61.40;;;;;;5377544;26;20062;-70
2024/04/11 11:04:43;;;;;;;2.25;0.70;;;19.60;60.00;;;;;;5376879;26;20004;-70
2024/04/11 11:07:12;;;;;;;1.10;0.68;;;20.20;60.70;;;;;;5378096;26;20000;-69
2024/04/11 11:09:45;;;;;;;0.90;0.38;;;19.20;62.00;;;;;;5375730;26;20336;-69
2024/04/11 11:12:11;;;;;;;0.82;0.60;;;19.00;61.00;;;;;;5378646;26;20078;-69
2024/04/11 11:14:38;;;;;;;5.70;0.52;;;19.20;59.20;;;;;;5347093;26;20008;-69
2024/04/11 11:17:07;;;;;;;3.75;0.52;;;19.60;58.50;;;;;;5376399;26;20093;-69
2024/04/11 11:19:37;;;;;;;1.10;0.60;;;19.30;57.90;;;;;;5376245;26;20000;-69
2024/04/11 11:22:04;;;;;;;34.58;11.30;;;18.70;58.00;;;;;;5378404;26;19996;-69
2024/04/11 11:24:34;;;;;;;4.47;1.35;;;18.50;59.50;;;;;;5371736;26;20016;-69
2024/04/11 11:27:01;;;;;;;0.70;0.30;;;18.90;59.30;;;;;;5376424;26;20015;-69
2024/04/11 11:29:29;;;;;;;1.15;0.20;;;18.80;59.70;;;;;;5375858;26;20484;-69
2024/04/11 11:32:04;;;;;;;2.60;1.17;;;18.90;59.90;;;;;;5376268;26;20003;-69
2024/04/11 11:34:34;;;;;;;1.98;0.65;;;19.40;59.50;;;;;;5375583;26;20468;-69
2024/04/11 11:37:03;;;;;;;1.25;0.52;;;19.40;57.20;;;;;;5377645;26;20436;-69
2024/04/11 11:39:42;;;;;;;4.05;0.85;;;19.60;57.60;;;;;;5375098;26;19993;-69
2024/04/11 11:42:23;;;;;;;0.98;0.50;;;18.80;56.90;;;;;;5375936;26;20012;-69
2024/04/11 11:47:35;;;;;;;4.70;0.68;;;19.30;58.30;;;;;;5376415;26;20028;-70
2024/04/11 11:50:09;;;;;;;3.40;0.73;;;19.00;57.70;;;;;;5376196;26;20000;-70
2024/04/11 11:52:43;;;;;;;2.70;1.15;;;18.50;59.20;;;;;;5378058;26;19993;-70
2024/04/11 11:55:18;;;;;;;4.57;0.82;;;18.70;59.50;;;;;;5375571;26;20000;-69
2024/04/11 11:58:02;;;;;;;1.05;0.35;;;19.10;59.50;;;;;;5377562;26;20036;-69
2024/04/11 12:00:32;;;;;;;2.05;0.57;;;19.00;58.10;;;;;;5376658;26;20073;-70
2024/04/11 12:03:11;;;;;;;7.40;0.60;;;19.20;57.90;;;;;;5376416;26;20008;-70
2024/04/11 12:05:39;;;;;;;1.33;0.50;;;19.00;60.10;;;;;;5376089;26;20008;-70
2024/04/11 12:08:08;;;;;;;1.13;0.60;;;19.00;59.60;;;;;;5375246;26;20008;-69
2024/04/11 12:13:31;;;;;;;1.77;0.30;;;20.30;58.90;;;;;;5375746;26;20404;-69
2024/04/11 12:15:58;;;;;;;1.85;0.45;;;19.60;58.60;;;;;;5377480;26;20468;-70
2024/04/11 12:18:25;;;;;;;3.33;0.57;;;19.70;58.00;;;;;;5374788;26;20005;-69
2024/04/11 12:20:52;;;;;;;4.10;1.45;;;19.90;58.70;;;;;;5378396;26;19999;-69
2024/04/11 12:23:22;;;;;;;1.38;0.63;;;19.30;58.70;;;;;;5378506;26;20079;-70
2024/04/11 12:25:50;;;;;;;1.77;0.60;;;20.10;57.40;;;;;;5379434;26;20074;-70
2024/04/11 12:28:19;;;;;;;4.93;0.50;;;20.50;58.40;;;;;;5377362;26;20001;-70
2024/04/11 12:31:01;;;;;;;2.45;0.57;;;21.40;57.00;;;;;;5379361;26;20000;-69
2024/04/11 12:33:27;;;;;;;4.95;0.77;;;21.30;55.80;;;;;;5378269;26;20004;-70
2024/04/11 12:35:56;;;;;;;2.58;0.63;;;21.50;54.60;;;;;;5378114;26;20041;-71
2024/04/11 12:38:24;;;;;;;1.55;0.47;;;22.20;54.90;;;;;;5378835;26;20004;-69
2024/04/11 12:40:51;;;;;;;3.47;0.80;;;21.20;55.30;;;;;;5379453;26;20077;-70
2024/04/11 12:43:17;;;;;;;2.38;0.60;;;20.70;55.50;;;;;;5378679;26;20008;-69
2024/04/11 12:45:52;;;;;;;2.72;0.65;;;21.20;55.90;;;;;;5381375;26;20000;-70
2024/04/11 12:48:25;;;;;;;5.47;0.77;;;21.40;54.60;;;;;;5378245;26;20460;-70
2024/04/11 12:50:59;;;;;;;1.95;0.77;;;21.10;53.70;;;;;;5368054;26;20001;-69
2024/04/11 12:53:27;;;;;;;3.47;0.80;;;21.80;53.80;;;;;;5375929;26;20004;-69
2024/04/11 12:55:55;;;;;;;7.93;0.90;;;21.00;56.40;;;;;;5378856;26;20000;-69
2024/04/11 12:58:41;;;;;;;3.15;1.02;;;21.60;54.30;;;;;;5377143;26;20000;-70
2024/04/11 13:01:08;;;;;;;4.35;1.27;;;21.30;54.30;;;;;;5381179;26;19997;-70
2024/04/11 13:03:52;;;;;;;4.30;1.67;;;21.50;54.70;;;;;;5378696;26;20703;-69
2024/04/11 13:06:29;;;;;;;3.63;0.90;;;22.70;53.60;;;;;;5378234;26;20016;-69
2024/04/11 13:09:17;;;;;;;3.90;0.90;;;23.20;52.10;;;;;;5379027;26;20007;-70
2024/04/11 13:11:48;;;;;;;3.55;0.65;;;22.40;51.70;;;;;;5369411;26;20723;-70